CheckWX is a tool to help pilots better visualize weather data.  It is not intended as a substitute for an official pre-flight weather briefing.

13:42:41 UTC

EGEC METAR
Campbeltown Airport
Campbeltown, United Kingdom
Current

14 hours ago

EGEC 192320Z 34002KT 4800 -DZ OVC006 14/14 Q0998
Observed
Jul-19 @ 23:20 UTC
Wind
  • 340° at 2 KTS
Visibility
4,800 meters
Flight Rules
IFR
Conditions
Light Drizzle
Cloud Levels
  • Overcast at 600' AGL
Temperature
14°C / 57°F
Dewpoint
14°C / 57°F
Humidity
100%
Altimeter
29.47" Hg
Pressure
997.92 hPa
Previous

15 hours ago

EGEC 192250Z 35004KT 4200 -DZ BR OVC006 14/14 Q0999
Observed
Jul-19 @ 22:50 UTC
Wind
  • 350° at 4 KTS
Visibility
4,200 meters
Flight Rules
IFR
Conditions
Light Drizzle, Mist
Cloud Levels
  • Overcast at 600' AGL
Temperature
14°C / 57°F
Dewpoint
14°C / 57°F
Humidity
100%
Altimeter
29.5" Hg
Pressure
998.92 hPa
Previous

15 hours ago

EGEC 192220Z 33002KT 4700 -DZ BR OVC005 14/14 Q0999
Observed
Jul-19 @ 22:20 UTC
Wind
  • 330° at 2 KTS
Visibility
4,700 meters
Flight Rules
IFR
Conditions
Light Drizzle, Mist
Cloud Levels
  • Overcast at 500' AGL
Temperature
14°C / 57°F
Dewpoint
14°C / 57°F
Humidity
100%
Altimeter
29.5" Hg
Pressure
998.92 hPa